sensor_id;sensor_type;location;lat;lon;timestamp;pressure;altitude;pressure_sealevel;temperature;humidity
13422;BME280;6782;55.904;13.396;2023-05-11T00:01:19;100948.25;;;12.42;100.00
13422;BME280;6782;55.904;13.396;2023-05-11T00:04:07;100942.25;;;12.35;100.00
13422;BME280;6782;55.904;13.396;2023-05-11T00:06:54;100950.22;;;12.34;100.00
13422;BME280;6782;55.904;13.396;2023-05-11T00:09:42;100957.16;;;12.38;100.00
13422;BME280;6782;55.904;13.396;2023-05-11T00:12:31;100953.75;;;12.34;100.00
13422;BME280;6782;55.904;13.396;2023-05-11T00:15:19;100955.78;;;12.25;100.00
13422;BME280;6782;55.904;13.396;2023-05-11T00:18:06;100969.91;;;12.24;100.00
13422;BME280;6782;55.904;13.396;2023-05-11T00:20:53;100978.50;;;12.32;100.00
13422;BME280;6782;55.904;13.396;2023-05-11T00:23:41;100973.03;;;12.38;100.00
13422;BME280;6782;55.904;13.396;2023-05-11T00:26:28;100970.38;;;12.38;100.00
13422;BME280;6782;55.904;13.396;2023-05-11T00:29:17;100966.34;;;12.25;100.00
13422;BME280;6782;55.904;13.396;2023-05-11T00:32:05;100977.09;;;12.19;100.00
13422;BME280;6782;55.904;13.396;2023-05-11T00:34:52;100984.19;;;12.17;100.00
13422;BME280;6782;55.904;13.396;2023-05-11T00:37:39;100984.09;;;12.20;100.00
13422;BME280;6782;55.904;13.396;2023-05-11T00:40:27;100985.91;;;12.18;100.00
13422;BME280;6782;55.904;13.396;2023-05-11T00:43:17;100985.84;;;12.21;100.00
13422;BME280;6782;55.904;13.396;2023-05-11T00:46:06;100985.97;;;12.15;100.00
13422;BME280;6782;55.904;13.396;2023-05-11T00:48:53;100984.41;;;12.09;100.00
13422;BME280;6782;55.904;13.396;2023-05-11T00:51:41;100996.50;;;12.18;100.00
13422;BME280;6782;55.904;13.396;2023-05-11T00:54:28;100987.59;;;12.22;100.00
13422;BME280;6782;55.904;13.396;2023-05-11T00:57:16;100977.47;;;12.04;100.00
13422;BME280;6782;55.904;13.396;2023-05-11T01:00:05;100983.72;;;12.00;100.00
13422;BME280;6782;55.904;13.396;2023-05-11T01:02:54;100984.59;;;12.00;100.00
13422;BME280;6782;55.904;13.396;2023-05-11T01:05:47;100981.94;;;12.02;100.00
13422;BME280;6782;55.904;13.396;2023-05-11T01:08:39;100974.19;;;11.94;100.00
13422;BME280;6782;55.904;13.396;2023-05-11T01:11:34;100979.63;;;11.88;100.00
13422;BME280;6782;55.904;13.396;2023-05-11T01:14:28;100972.72;;;11.82;100.00
13422;BME280;6782;55.904;13.396;2023-05-11T01:17:24;100961.28;;;11.82;100.00
13422;BME280;6782;55.904;13.396;2023-05-11T01:20:22;100964.75;;;11.84;100.00
13422;BME280;6782;55.904;13.396;2023-05-11T01:23:24;100964.84;;;11.81;100.00
13422;BME280;6782;55.904;13.396;2023-05-11T01:26:43;100965.69;;;11.81;100.00
13422;BME280;6782;55.904;13.396;2023-05-11T01:29:54;100960.59;;;11.75;100.00
13422;BME280;6782;55.904;13.396;2023-05-11T01:32:49;100957.00;;;11.76;100.00
13422;BME280;6782;55.904;13.396;2023-05-11T01:35:40;100963.22;;;11.75;100.00
13422;BME280;6782;55.904;13.396;2023-05-11T01:38:32;100955.44;;;11.69;100.00
13422;BME280;6782;55.904;13.396;2023-05-11T01:41:22;100964.28;;;11.68;100.00
13422;BME280;6782;55.904;13.396;2023-05-11T01:44:11;100986.00;;;11.79;100.00
13422;BME280;6782;55.904;13.396;2023-05-11T01:47:01;100977.50;;;11.68;100.00
13422;BME280;6782;55.904;13.396;2023-05-11T01:49:51;100983.81;;;11.60;100.00
13422;BME280;6782;55.904;13.396;2023-05-11T01:52:41;100977.66;;;11.59;100.00
13422;BME280;6782;55.904;13.396;2023-05-11T01:55:30;100989.06;;;11.61;100.00
13422;BME280;6782;55.904;13.396;2023-05-11T01:58:18;100992.69;;;11.57;100.00
13422;BME280;6782;55.904;13.396;2023-05-11T02:01:07;100991.94;;;11.52;100.00
13422;BME280;6782;55.904;13.396;2023-05-11T02:03:57;101003.44;;;11.48;100.00
13422;BME280;6782;55.904;13.396;2023-05-11T02:06:47;101005.06;;;11.55;100.00
13422;BME280;6782;55.904;13.396;2023-05-11T02:09:35;100992.75;;;11.54;100.00
13422;BME280;6782;55.904;13.396;2023-05-11T02:12:24;100989.34;;;11.49;100.00
13422;BME280;6782;55.904;13.396;2023-05-11T02:15:12;100996.28;;;11.53;100.00
13422;BME280;6782;55.904;13.396;2023-05-11T02:18:01;101004.31;;;11.49;100.00
13422;BME280;6782;55.904;13.396;2023-05-11T02:20:49;101004.25;;;11.52;100.00
13422;BME280;6782;55.904;13.396;2023-05-11T02:23:40;101002.50;;;11.52;100.00
13422;BME280;6782;55.904;13.396;2023-05-11T02:26:28;101000.72;;;11.53;100.00
13422;BME280;6782;55.904;13.396;2023-05-11T02:29:15;100998.84;;;11.58;100.00
13422;BME280;6782;55.904;13.396;2023-05-11T02:32:06;100996.34;;;11.52;100.00
13422;BME280;6782;55.904;13.396;2023-05-11T02:34:59;100995.53;;;11.48;100.00
13422;BME280;6782;55.904;13.396;2023-05-11T02:37:47;101004.22;;;11.53;100.00
13422;BME280;6782;55.904;13.396;2023-05-11T02:40:41;101004.09;;;11.59;100.00
13422;BME280;6782;55.904;13.396;2023-05-11T02:43:32;100995.22;;;11.62;100.00
13422;BME280;6782;55.904;13.396;2023-05-11T02:46:25;100983.84;;;11.58;100.00
13422;BME280;6782;55.904;13.396;2023-05-11T02:49:14;100988.19;;;11.61;100.00
13422;BME280;6782;55.904;13.396;2023-05-11T02:52:05;100987.19;;;11.66;100.00
13422;BME280;6782;55.904;13.396;2023-05-11T02:54:55;100982.72;;;11.70;100.00
13422;BME280;6782;55.904;13.396;2023-05-11T02:57:45;100974.75;;;11.71;100.00
13422;BME280;6782;55.904;13.396;2023-05-11T03:00:32;100977.41;;;11.71;100.00
13422;BME280;6782;55.904;13.396;2023-05-11T03:03:20;100986.00;;;11.81;100.00
13422;BME280;6782;55.904;13.396;2023-05-11T03:06:07;100978.31;;;11.70;100.00
13422;BME280;6782;55.904;13.396;2023-05-11T03:08:54;100981.84;;;11.69;100.00
13422;BME280;6782;55.904;13.396;2023-05-11T03:11:42;100992.44;;;11.69;100.00
13422;BME280;6782;55.904;13.396;2023-05-11T03:14:32;101003.91;;;11.67;100.00
13422;BME280;6782;55.904;13.396;2023-05-11T03:17:20;101002.94;;;11.72;100.00
13422;BME280;6782;55.904;13.396;2023-05-11T03:20:08;100987.00;;;11.75;100.00
13422;BME280;6782;55.904;13.396;2023-05-11T03:22:56;100991.47;;;11.72;100.00
13422;BME280;6782;55.904;13.396;2023-05-11T03:25:44;100988.72;;;11.76;100.00
13422;BME280;6782;55.904;13.396;2023-05-11T03:28:32;100990.34;;;11.83;100.00
13422;BME280;6782;55.904;13.396;2023-05-11T03:31:23;100981.41;;;11.87;100.00
13422;BME280;6782;55.904;13.396;2023-05-11T03:34:10;100978.00;;;11.82;100.00
13422;BME280;6782;55.904;13.396;2023-05-11T03:36:58;100996.13;;;11.99;100.00
13422;BME280;6782;55.904;13.396;2023-05-11T03:39:51;100986.31;;;12.03;100.00
13422;BME280;6782;55.904;13.396;2023-05-11T03:42:42;100984.59;;;12.02;100.00
13422;BME280;6782;55.904;13.396;2023-05-11T03:45:30;100989.88;;;12.02;100.00
13422;BME280;6782;55.904;13.396;2023-05-11T03:48:21;100984.72;;;11.96;100.00
13422;BME280;6782;55.904;13.396;2023-05-11T03:51:09;100997.75;;;12.03;100.00
13422;BME280;6782;55.904;13.396;2023-05-11T03:53:57;101000.59;;;11.96;100.00
13422;BME280;6782;55.904;13.396;2023-05-11T03:56:44;101003.91;;;12.04;100.00
13422;BME280;6782;55.904;13.396;2023-05-11T03:59:31;100990.03;;;11.96;100.00
13422;BME280;6782;55.904;13.396;2023-05-11T04:02:18;100992.59;;;11.99;100.00
13422;BME280;6782;55.904;13.396;2023-05-11T04:05:11;100993.50;;;11.98;100.00
13422;BME280;6782;55.904;13.396;2023-05-11T04:07:59;101008.13;;;12.11;100.00
13422;BME280;6782;55.904;13.396;2023-05-11T04:10:46;101003.91;;;12.04;100.00
13422;BME280;6782;55.904;13.396;2023-05-11T04:13:33;100996.66;;;12.12;100.00
13422;BME280;6782;55.904;13.396;2023-05-11T04:16:20;101000.06;;;12.17;100.00
13422;BME280;6782;55.904;13.396;2023-05-11T04:19:07;100994.50;;;12.26;100.00
13422;BME280;6782;55.904;13.396;2023-05-11T04:21:56;100985.69;;;12.27;100.00
13422;BME280;6782;55.904;13.396;2023-05-11T04:24:43;100990.91;;;12.30;100.00
13422;BME280;6782;55.904;13.396;2023-05-11T04:27:31;101004.88;;;12.33;100.00
13422;BME280;6782;55.904;13.396;2023-05-11T04:30:18;101009.22;;;12.37;100.00
13422;BME280;6782;55.904;13.396;2023-05-11T04:33:06;101022.22;;;12.45;100.00
13422;BME280;6782;55.904;13.396;2023-05-11T04:35:53;101038.88;;;12.48;100.00
13422;BME280;6782;55.904;13.396;2023-05-11T04:38:42;101066.78;;;12.60;100.00
13422;BME280;6782;55.904;13.396;2023-05-11T04:41:29;101054.66;;;12.51;100.00
13422;BME280;6782;55.904;13.396;2023-05-11T04:44:16;101079.78;;;12.69;100.00
13422;BME280;6782;55.904;13.396;2023-05-11T04:47:04;101081.19;;;12.82;100.00
13422;BME280;6782;55.904;13.396;2023-05-11T04:49:51;101089.16;;;13.14;100.00
13422;BME280;6782;55.904;13.396;2023-05-11T04:52:38;101053.41;;;13.28;100.00
13422;BME280;6782;55.904;13.396;2023-05-11T04:55:27;101058.38;;;13.40;100.00
13422;BME280;6782;55.904;13.396;2023-05-11T04:58:15;101030.22;;;13.36;100.00
13422;BME280;6782;55.904;13.396;2023-05-11T05:01:02;101021.75;;;13.25;100.00
13422;BME280;6782;55.904;13.396;2023-05-11T05:03:49;101033.97;;;13.29;100.00
13422;BME280;6782;55.904;13.396;2023-05-11T05:06:37;101029.78;;;13.22;100.00
13422;BME280;6782;55.904;13.396;2023-05-11T05:09:24;101062.75;;;13.41;100.00
13422;BME280;6782;55.904;13.396;2023-05-11T05:12:13;101054.25;;;13.59;100.00
13422;BME280;6782;55.904;13.396;2023-05-11T05:15:00;101034.78;;;13.60;100.00
13422;BME280;6782;55.904;13.396;2023-05-11T05:17:47;101038.16;;;13.65;100.00
13422;BME280;6782;55.904;13.396;2023-05-11T05:20:34;101057.97;;;13.81;100.00
13422;BME280;6782;55.904;13.396;2023-05-11T05:23:21;101048.03;;;13.88;100.00
13422;BME280;6782;55.904;13.396;2023-05-11T05:26:09;101027.16;;;13.77;100.00
13422;BME280;6782;55.904;13.396;2023-05-11T05:28:58;101036.72;;;13.82;100.00
13422;BME280;6782;55.904;13.396;2023-05-11T05:31:45;101059.97;;;14.01;100.00
13422;BME280;6782;55.904;13.396;2023-05-11T05:34:33;101035.97;;;14.05;100.00
13422;BME280;6782;55.904;13.396;2023-05-11T05:37:20;101028.78;;;14.09;100.00
13422;BME280;6782;55.904;13.396;2023-05-11T05:40:08;101031.06;;;14.19;100.00
13422;BME280;6782;55.904;13.396;2023-05-11T05:42:56;101052.72;;;14.33;100.00
13422;BME280;6782;55.904;13.396;2023-05-11T05:45:45;101037.00;;;14.27;100.00
13422;BME280;6782;55.904;13.396;2023-05-11T05:48:32;101039.25;;;14.39;100.00
13422;BME280;6782;55.904;13.396;2023-05-11T05:51:19;101058.13;;;14.57;100.00
13422;BME280;6782;55.904;13.396;2023-05-11T05:54:07;101039.69;;;14.52;100.00
13422;BME280;6782;55.904;13.396;2023-05-11T05:56:55;101043.94;;;14.58;100.00
13422;BME280;6782;55.904;13.396;2023-05-11T05:59:42;101054.22;;;14.67;100.00
13422;BME280;6782;55.904;13.396;2023-05-11T06:02:32;101062.69;;;14.78;100.00
13422;BME280;6782;55.904;13.396;2023-05-11T06:05:19;101032.88;;;14.70;100.00
13422;BME280;6782;55.904;13.396;2023-05-11T06:08:06;101044.16;;;14.76;100.00
13422;BME280;6782;55.904;13.396;2023-05-11T06:10:53;101064.94;;;14.88;100.00
13422;BME280;6782;55.904;13.396;2023-05-11T06:13:40;101034.66;;;14.69;100.00
13422;BME280;6782;55.904;13.396;2023-05-11T06:16:27;101102.38;;;15.05;100.00
13422;BME280;6782;55.904;13.396;2023-05-11T06:19:17;101071.31;;;15.07;100.00
13422;BME280;6782;55.904;13.396;2023-05-11T06:22:04;101052.69;;;15.09;100.00
13422;BME280;6782;55.904;13.396;2023-05-11T06:24:51;101041.94;;;14.89;100.00
13422;BME280;6782;55.904;13.396;2023-05-11T06:27:38;101080.66;;;15.19;100.00
13422;BME280;6782;55.904;13.396;2023-05-11T06:30:26;101106.44;;;15.40;100.00
13422;BME280;6782;55.904;13.396;2023-05-11T06:33:13;101055.94;;;15.17;100.00
13422;BME280;6782;55.904;13.396;2023-05-11T06:36:05;101106.22;;;15.46;100.00
13422;BME280;6782;55.904;13.396;2023-05-11T06:38:52;101107.16;;;15.69;100.00
13422;BME280;6782;55.904;13.396;2023-05-11T06:41:40;101093.78;;;15.70;100.00
13422;BME280;6782;55.904;13.396;2023-05-11T06:44:27;101078.94;;;15.64;100.00
13422;BME280;6782;55.904;13.396;2023-05-11T06:47:14;101079.47;;;15.51;100.00
13422;BME280;6782;55.904;13.396;2023-05-11T06:50:02;101060.09;;;15.47;100.00
13422;BME280;6782;55.904;13.396;2023-05-11T06:52:51;101080.03;;;15.59;100.00
13422;BME280;6782;55.904;13.396;2023-05-11T06:55:39;101082.16;;;15.73;100.00
13422;BME280;6782;55.904;13.396;2023-05-11T06:58:26;101099.25;;;15.89;100.00
13422;BME280;6782;55.904;13.396;2023-05-11T07:01:13;101089.53;;;15.88;100.00
13422;BME280;6782;55.904;13.396;2023-05-11T07:04:00;101101.53;;;15.98;100.00
13422;BME280;6782;55.904;13.396;2023-05-11T07:06:47;101110.28;;;16.01;100.00
13422;BME280;6782;55.904;13.396;2023-05-11T07:09:36;101119.31;;;16.19;100.00
13422;BME280;6782;55.904;13.396;2023-05-11T07:12:24;101120.44;;;16.35;100.00
13422;BME280;6782;55.904;13.396;2023-05-11T07:15:12;101083.53;;;16.26;98.88
13422;BME280;6782;55.904;13.396;2023-05-11T07:17:59;101092.94;;;16.35;98.65
13422;BME280;6782;55.904;13.396;2023-05-11T07:20:46;101095.03;;;16.48;98.06
13422;BME280;6782;55.904;13.396;2023-05-11T07:23:34;101098.47;;;16.50;96.99
13422;BME280;6782;55.904;13.396;2023-05-11T07:26:23;101097.53;;;16.51;96.21
13422;BME280;6782;55.904;13.396;2023-05-11T07:29:10;101106.28;;;16.76;96.04
13422;BME280;6782;55.904;13.396;2023-05-11T07:31:58;101095.06;;;16.68;94.66
13422;BME280;6782;55.904;13.396;2023-05-11T07:34:45;101090.00;;;16.82;93.47
13422;BME280;6782;55.904;13.396;2023-05-11T07:37:33;101103.28;;;16.84;92.82
13422;BME280;6782;55.904;13.396;2023-05-11T07:40:20;101103.16;;;16.87;92.08
13422;BME280;6782;55.904;13.396;2023-05-11T07:43:08;101126.63;;;16.98;92.37
13422;BME280;6782;55.904;13.396;2023-05-11T07:45:56;101120.38;;;17.19;91.68
13422;BME280;6782;55.904;13.396;2023-05-11T07:48:43;101107.56;;;17.27;90.25
13422;BME280;6782;55.904;13.396;2023-05-11T07:51:30;101099.66;;;17.25;88.41
13422;BME280;6782;55.904;13.396;2023-05-11T07:54:17;101118.88;;;17.32;88.39
13422;BME280;6782;55.904;13.396;2023-05-11T07:57:05;101136.63;;;17.53;88.32
13422;BME280;6782;55.904;13.396;2023-05-11T07:59:54;101144.69;;;17.70;87.87
13422;BME280;6782;55.904;13.396;2023-05-11T08:02:41;101136.72;;;17.50;87.25
13422;BME280;6782;55.904;13.396;2023-05-11T08:05:29;101152.13;;;17.82;86.95
13422;BME280;6782;55.904;13.396;2023-05-11T08:08:17;101141.41;;;18.02;85.81
13422;BME280;6782;55.904;13.396;2023-05-11T08:11:05;101115.41;;;17.87;82.81
13422;BME280;6782;55.904;13.396;2023-05-11T08:13:52;101122.06;;;17.97;81.77
13422;BME280;6782;55.904;13.396;2023-05-11T08:16:41;101133.59;;;17.98;81.34
13422;BME280;6782;55.904;13.396;2023-05-11T08:19:28;101165.34;;;18.23;82.10
13422;BME280;6782;55.904;13.396;2023-05-11T08:22:15;101178.34;;;18.49;82.65
13422;BME280;6782;55.904;13.396;2023-05-11T08:25:03;101190.78;;;18.84;82.41
13422;BME280;6782;55.904;13.396;2023-05-11T08:27:51;101151.53;;;18.67;80.50
13422;BME280;6782;55.904;13.396;2023-05-11T08:30:38;101130.94;;;18.34;78.91
13422;BME280;6782;55.904;13.396;2023-05-11T08:33:27;101157.06;;;18.46;79.12
13422;BME280;6782;55.904;13.396;2023-05-11T08:36:14;101155.31;;;18.45;78.61
13422;BME280;6782;55.904;13.396;2023-05-11T08:39:02;101144.00;;;18.40;78.00
13422;BME280;6782;55.904;13.396;2023-05-11T08:41:49;101189.69;;;18.71;79.35
13422;BME280;6782;55.904;13.396;2023-05-11T08:44:38;101143.63;;;18.66;77.08
13422;BME280;6782;55.904;13.396;2023-05-11T08:47:28;101172.72;;;18.89;78.02
13422;BME280;6782;55.904;13.396;2023-05-11T08:50:18;101166.44;;;19.07;76.28
13422;BME280;6782;55.904;13.396;2023-05-11T08:53:06;101163.97;;;19.20;75.73
13422;BME280;6782;55.904;13.396;2023-05-11T08:55:53;101176.69;;;19.32;75.77
13422;BME280;6782;55.904;13.396;2023-05-11T08:58:41;101177.09;;;19.42;75.93
13422;BME280;6782;55.904;13.396;2023-05-11T09:01:29;101172.81;;;19.05;75.38
13422;BME280;6782;55.904;13.396;2023-05-11T09:04:17;101190.63;;;19.21;75.93
13422;BME280;6782;55.904;13.396;2023-05-11T09:07:08;101184.97;;;19.27;75.60
13422;BME280;6782;55.904;13.396;2023-05-11T09:09:56;101192.75;;;19.49;75.61
13422;BME280;6782;55.904;13.396;2023-05-11T09:12:44;101184.16;;;19.60;74.63
13422;BME280;6782;55.904;13.396;2023-05-11T09:15:31;101183.69;;;19.69;73.50
13422;BME280;6782;55.904;13.396;2023-05-11T09:18:18;101183.94;;;19.80;72.58
13422;BME280;6782;55.904;13.396;2023-05-11T09:21:06;101185.31;;;19.71;72.65
13422;BME280;6782;55.904;13.396;2023-05-11T09:23:56;101190.34;;;19.93;72.38
13422;BME280;6782;55.904;13.396;2023-05-11T09:26:45;101189.69;;;20.05;72.39
13422;BME280;6782;55.904;13.396;2023-05-11T09:29:33;101175.72;;;20.00;70.62
13422;BME280;6782;55.904;13.396;2023-05-11T09:32:20;101225.13;;;20.10;71.72
13422;BME280;6782;55.904;13.396;2023-05-11T09:35:17;101235.91;;;20.41;71.91
13422;BME280;6782;55.904;13.396;2023-05-11T09:38:07;101223.44;;;20.56;70.79
13422;BME280;6782;55.904;13.396;2023-05-11T09:40:56;101225.84;;;20.76;69.74
13422;BME280;6782;55.904;13.396;2023-05-11T09:43:45;101249.34;;;20.87;70.05
13422;BME280;6782;55.904;13.396;2023-05-11T09:46:35;101228.03;;;20.99;68.84
13422;BME280;6782;55.904;13.396;2023-05-11T09:49:28;101221.66;;;20.86;67.87
13422;BME280;6782;55.904;13.396;2023-05-11T09:52:16;101241.56;;;20.98;68.47
13422;BME280;6782;55.904;13.396;2023-05-11T09:55:09;101256.50;;;21.17;67.59
13422;BME280;6782;55.904;13.396;2023-05-11T09:57:58;101235.81;;;21.04;66.69
13422;BME280;6782;55.904;13.396;2023-05-11T10:00:50;101244.53;;;21.23;66.92
13422;BME280;6782;55.904;13.396;2023-05-11T10:03:45;101255.94;;;21.56;67.05
13422;BME280;6782;55.904;13.396;2023-05-11T10:06:45;101250.00;;;21.65;65.53
13422;BME280;6782;55.904;13.396;2023-05-11T10:09:33;101241.53;;;21.57;64.42
13422;BME280;6782;55.904;13.396;2023-05-11T10:12:22;101266.50;;;21.59;65.36
13422;BME280;6782;55.904;13.396;2023-05-11T10:15:12;101281.53;;;22.06;65.43
13422;BME280;6782;55.904;13.396;2023-05-11T10:18:00;101241.97;;;21.79;64.09
13422;BME280;6782;55.904;13.396;2023-05-11T10:20:48;101258.44;;;21.73;64.27
13422;BME280;6782;55.904;13.396;2023-05-11T10:23:36;101287.38;;;22.12;64.75
13422;BME280;6782;55.904;13.396;2023-05-11T10:26:24;101238.03;;;21.71;64.44
13422;BME280;6782;55.904;13.396;2023-05-11T10:29:12;101210.72;;;21.05;63.20
13422;BME280;6782;55.904;13.396;2023-05-11T10:32:02;101244.59;;;20.92;65.21
13422;BME280;6782;55.904;13.396;2023-05-11T10:34:50;101272.75;;;21.44;65.57
13422;BME280;6782;55.904;13.396;2023-05-11T10:37:39;101277.34;;;21.72;65.37
13422;BME280;6782;55.904;13.396;2023-05-11T10:40:27;101263.25;;;21.68;65.45
13422;BME280;6782;55.904;13.396;2023-05-11T10:43:28;101258.44;;;21.73;64.33
13422;BME280;6782;55.904;13.396;2023-05-11T10:46:34;101282.03;;;21.68;65.09
13422;BME280;6782;55.904;13.396;2023-05-11T10:49:45;101261.81;;;21.33;65.79
13422;BME280;6782;55.904;13.396;2023-05-11T10:52:57;101294.44;;;21.41;67.96
13422;BME280;6782;55.904;13.396;2023-05-11T10:55:59;101259.25;;;21.16;67.51
13422;BME280;6782;55.904;13.396;2023-05-11T10:59:09;101302.75;;;21.80;69.24
13422;BME280;6782;55.904;13.396;2023-05-11T11:02:01;101275.19;;;21.93;68.11
13422;BME280;6782;55.904;13.396;2023-05-11T11:04:51;101282.03;;;21.68;68.77
13422;BME280;6782;55.904;13.396;2023-05-11T11:07:57;101266.69;;;21.56;68.72
13422;BME280;6782;55.904;13.396;2023-05-11T11:10:44;101284.16;;;21.77;68.80
13422;BME280;6782;55.904;13.396;2023-05-11T11:13:55;101295.69;;;21.79;69.00
13422;BME280;6782;55.904;13.396;2023-05-11T11:20:44;101245.38;;;21.53;67.12
13422;BME280;6782;55.904;13.396;2023-05-11T11:23:46;101257.19;;;21.21;67.78
13422;BME280;6782;55.904;13.396;2023-05-11T11:26:48;101278.53;;;21.52;68.76
13422;BME280;6782;55.904;13.396;2023-05-11T11:29:36;101282.78;;;21.56;68.56
13422;BME280;6782;55.904;13.396;2023-05-11T11:32:25;101280.09;;;21.56;68.96
13422;BME280;6782;55.904;13.396;2023-05-11T11:35:44;101305.16;;;22.01;68.20
13422;BME280;6782;55.904;13.396;2023-05-11T11:38:56;101295.91;;;22.05;67.38
13422;BME280;6782;55.904;13.396;2023-05-11T11:41:44;101275.19;;;22.07;66.56
13422;BME280;6782;55.904;13.396;2023-05-11T11:44:32;101256.94;;;21.69;65.37
13422;BME280;6782;55.904;13.396;2023-05-11T11:47:21;101296.28;;;21.99;66.78
13422;BME280;6782;55.904;13.396;2023-05-11T11:50:10;101260.84;;;21.34;65.73
13422;BME280;6782;55.904;13.396;2023-05-11T11:53:00;101308.63;;;21.43;67.40
13422;BME280;6782;55.904;13.396;2023-05-11T11:55:49;101287.38;;;21.25;66.94
13422;BME280;6782;55.904;13.396;2023-05-11T11:58:56;101278.88;;;21.32;66.89
13422;BME280;6782;55.904;13.396;2023-05-11T12:01:44;101254.88;;;21.15;66.09
13422;BME280;6782;55.904;13.396;2023-05-11T12:04:51;101259.88;;;21.21;65.45
13422;BME280;6782;55.904;13.396;2023-05-11T12:07:43;101308.94;;;21.82;66.26
13422;BME280;6782;55.904;13.396;2023-05-11T12:10:33;101266.88;;;21.67;65.14
13422;BME280;6782;55.904;13.396;2023-05-11T12:13:23;101274.56;;;21.59;64.69
13422;BME280;6782;55.904;13.396;2023-05-11T12:16:11;101265.34;;;21.49;64.64
13422;BME280;6782;55.904;13.396;2023-05-11T12:18:59;101293.75;;;21.81;65.00
13422;BME280;6782;55.904;13.396;2023-05-11T12:21:46;101255.53;;;21.48;63.74
13422;BME280;6782;55.904;13.396;2023-05-11T12:24:33;101346.03;;;22.20;66.68
13422;BME280;6782;55.904;13.396;2023-05-11T12:27:24;101280.94;;;21.87;62.73
13422;BME280;6782;55.904;13.396;2023-05-11T12:30:18;101305.31;;;21.98;63.35
13422;BME280;6782;55.904;13.396;2023-05-11T12:33:06;101276.25;;;21.90;61.81
13422;BME280;6782;55.904;13.396;2023-05-11T12:35:55;101276.31;;;21.45;61.51
13422;BME280;6782;55.904;13.396;2023-05-11T12:38:44;101308.56;;;21.59;62.56
13422;BME280;6782;55.904;13.396;2023-05-11T12:41:33;101339.44;;;21.96;63.32
13422;BME280;6782;55.904;13.396;2023-05-11T12:44:23;101298.59;;;21.91;61.72
13422;BME280;6782;55.904;13.396;2023-05-11T12:47:11;101282.78;;;21.56;60.61
13422;BME280;6782;55.904;13.396;2023-05-11T12:49:58;101322.41;;;21.67;62.05
13422;BME280;6782;55.904;13.396;2023-05-11T12:52:46;101274.41;;;21.17;60.78
13422;BME280;6782;55.904;13.396;2023-05-11T12:55:33;101369.69;;;21.99;63.87
13422;BME280;6782;55.904;13.396;2023-05-11T12:58:21;101313.28;;;21.99;60.94
13422;BME280;6782;55.904;13.396;2023-05-11T13:01:09;101265.44;;;21.32;59.29
13422;BME280;6782;55.904;13.396;2023-05-11T13:03:57;101277.94;;;21.47;59.23
13422;BME280;6782;55.904;13.396;2023-05-11T13:06:44;101316.00;;;21.69;60.00
13422;BME280;6782;55.904;13.396;2023-05-11T13:09:31;101271.88;;;21.59;58.49
13422;BME280;6782;55.904;13.396;2023-05-11T13:12:18;101249.59;;;21.43;56.52
13422;BME280;6782;55.904;13.396;2023-05-11T13:15:07;101293.13;;;22.06;56.47
13422;BME280;6782;55.904;13.396;2023-05-11T13:17:59;101306.06;;;22.14;56.41
13422;BME280;6782;55.904;13.396;2023-05-11T13:20:46;101295.72;;;22.22;54.08
13422;BME280;6782;55.904;13.396;2023-05-11T13:23:35;101317.59;;;22.30;54.36
13422;BME280;6782;55.904;13.396;2023-05-11T13:26:23;101315.78;;;22.16;53.48
13422;BME280;6782;55.904;13.396;2023-05-11T13:29:11;101290.38;;;22.08;52.02
13422;BME280;6782;55.904;13.396;2023-05-11T13:31:58;101311.47;;;22.00;52.05
13422;BME280;6782;55.904;13.396;2023-05-11T13:34:47;101348.88;;;22.17;52.87
13422;BME280;6782;55.904;13.396;2023-05-11T13:37:34;101305.31;;;21.98;51.87
13422;BME280;6782;55.904;13.396;2023-05-11T13:40:21;101298.19;;;21.53;52.40
13422;BME280;6782;55.904;13.396;2023-05-11T13:43:08;101319.78;;;21.65;53.35
13422;BME280;6782;55.904;13.396;2023-05-11T13:45:55;101336.84;;;21.35;55.22
13422;BME280;6782;55.904;13.396;2023-05-11T13:48:42;101368.69;;;22.16;55.72
13422;BME280;6782;55.904;13.396;2023-05-11T13:51:32;101325.03;;;21.82;54.34
13422;BME280;6782;55.904;13.396;2023-05-11T13:54:19;101321.16;;;21.72;53.97
13422;BME280;6782;55.904;13.396;2023-05-11T13:57:07;101331.13;;;21.70;54.96
13422;BME280;6782;55.904;13.396;2023-05-11T13:59:54;101345.63;;;22.12;54.67
13422;BME280;6782;55.904;13.396;2023-05-11T14:02:42;101332.19;;;21.98;54.43
13422;BME280;6782;55.904;13.396;2023-05-11T14:05:30;101339.84;;;21.90;54.89
13422;BME280;6782;55.904;13.396;2023-05-11T14:08:19;101329.31;;;22.01;54.35
13422;BME280;6782;55.904;13.396;2023-05-11T14:11:07;101307.66;;;21.44;53.80
13422;BME280;6782;55.904;13.396;2023-05-11T14:13:54;101308.09;;;21.37;54.12
13422;BME280;6782;55.904;13.396;2023-05-11T14:16:41;101343.38;;;21.60;55.11
13422;BME280;6782;55.904;13.396;2023-05-11T14:19:29;101338.28;;;21.86;54.48
13422;BME280;6782;55.904;13.396;2023-05-11T14:22:16;101359.66;;;22.31;54.40
13422;BME280;6782;55.904;13.396;2023-05-11T14:25:06;101307.72;;;21.58;53.80
13422;BME280;6782;55.904;13.396;2023-05-11T14:27:54;101343.03;;;21.80;54.50
13422;BME280;6782;55.904;13.396;2023-05-11T14:30:41;101321.38;;;21.69;53.07
13422;BME280;6782;55.904;13.396;2023-05-11T14:33:28;101300.59;;;21.57;52.31
13422;BME280;6782;55.904;13.396;2023-05-11T14:36:15;101304.06;;;21.59;52.24
13422;BME280;6782;55.904;13.396;2023-05-11T14:39:02;101321.81;;;21.92;51.99
13422;BME280;6782;55.904;13.396;2023-05-11T14:41:51;101295.44;;;21.54;51.55
13422;BME280;6782;55.904;13.396;2023-05-11T14:44:38;101294.44;;;21.41;50.89